Time;durP1;ratioP1;P1;durP2;ratioP2;P2;SDS_P1;SDS_P2;PMS_P1;PMS_P2;Temp;Humidity;BMP_temperature;BMP_pressure;BME280_temperature;BME280_humidity;BME280_pressure;Samples;Min_cycle;Max_cycle;Signal;HPM_P1;HPM_P2
2022/01/01 00:00:06;;;;;;;8.20;5.90;;;7.70;99.90;;;;;;5071070;28;20698;-75
2022/01/01 00:02:33;;;;;;;9.40;5.35;;;7.70;99.90;;;;;;5070478;28;20204;-75
2022/01/01 00:05:00;;;;;;;7.00;5.22;;;7.70;99.90;;;;;;5071039;28;20228;-75
2022/01/01 00:07:27;;;;;;;7.47;6.68;;;7.80;99.90;;;;;;5070952;28;20223;-76
2022/01/01 00:09:53;;;;;;;10.07;7.68;;;7.80;99.90;;;;;;5070786;28;20212;-75
2022/01/01 00:12:20;;;;;;;9.43;7.18;;;7.70;99.90;;;;;;5070306;28;20197;-76
2022/01/01 00:14:48;;;;;;;7.03;6.10;;;7.70;99.90;;;;;;5070578;28;20726;-76
2022/01/01 00:17:15;;;;;;;7.57;5.68;;;7.60;99.90;;;;;;5070795;28;20204;-76
2022/01/01 00:19:42;;;;;;;10.02;7.68;;;7.60;99.90;;;;;;5070073;28;20215;-76
2022/01/01 00:22:08;;;;;;;11.10;8.00;;;7.50;99.90;;;;;;5070359;28;20598;-75
2022/01/01 00:24:35;;;;;;;8.55;7.22;;;7.40;99.90;;;;;;5070084;28;20702;-76
2022/01/01 00:27:02;;;;;;;7.93;6.70;;;7.30;99.90;;;;;;5070292;28;20200;-76
2022/01/01 00:29:29;;;;;;;9.30;7.00;;;7.20;99.90;;;;;;5070578;28;20337;-76
2022/01/01 00:31:57;;;;;;;9.65;6.90;;;7.10;99.90;;;;;;5069993;28;20581;-76
2022/01/01 00:34:24;;;;;;;8.55;6.68;;;7.10;99.90;;;;;;5070614;28;20216;-76
2022/01/01 00:36:50;;;;;;;7.65;6.45;;;7.00;99.90;;;;;;5070406;28;20667;-75
2022/01/01 00:39:17;;;;;;;6.20;5.30;;;6.90;99.90;;;;;;5070773;28;20204;-75
2022/01/01 00:41:44;;;;;;;6.88;6.10;;;6.90;99.90;;;;;;5070045;28;20204;-76
2022/01/01 00:44:10;;;;;;;6.40;5.15;;;6.90;99.90;;;;;;5070348;28;20243;-76
2022/01/01 00:46:37;;;;;;;5.80;4.70;;;6.80;99.90;;;;;;5070303;28;20203;-75
2022/01/01 00:49:06;;;;;;;9.90;5.38;;;6.70;99.90;;;;;;5070402;28;20196;-75
2022/01/01 00:51:33;;;;;;;5.45;4.40;;;6.60;99.90;;;;;;5069872;28;20239;-75
2022/01/01 00:53:59;;;;;;;8.55;5.60;;;6.60;99.90;;;;;;5070134;28;20228;-76
2022/01/01 00:56:26;;;;;;;6.75;5.63;;;6.60;99.90;;;;;;5070460;28;20194;-75
2022/01/01 00:58:53;;;;;;;7.75;5.65;;;6.70;99.90;;;;;;5070433;28;20200;-75
2022/01/01 01:01:20;;;;;;;6.35;5.55;;;6.70;99.90;;;;;;5069562;28;20196;-75
2022/01/01 01:03:47;;;;;;;7.35;5.72;;;6.70;99.90;;;;;;5070450;28;20227;-76
2022/01/01 01:06:15;;;;;;;8.98;6.22;;;6.80;99.90;;;;;;5070077;28;20315;-76
2022/01/01 01:08:42;;;;;;;7.30;5.63;;;6.80;99.90;;;;;;5070284;28;20208;-76
2022/01/01 01:11:08;;;;;;;8.60;7.03;;;6.80;99.90;;;;;;5069509;28;20197;-75
2022/01/01 01:13:36;;;;;;;8.32;7.15;;;6.80;99.90;;;;;;5070023;28;20224;-75
2022/01/01 01:16:03;;;;;;;8.40;6.63;;;6.90;99.90;;;;;;5070315;28;20199;-75
2022/01/01 01:18:30;;;;;;;10.23;7.38;;;7.00;99.90;;;;;;5069803;28;20690;-75
2022/01/01 01:20:56;;;;;;;10.45;8.10;;;7.10;99.90;;;;;;5069930;28;20202;-75
2022/01/01 01:23:24;;;;;;;10.55;7.57;;;7.10;99.90;;;;;;5069991;28;20572;-75
2022/01/01 01:25:54;;;;;;;8.45;7.10;;;7.20;99.90;;;;;;5070264;28;20695;-75
2022/01/01 01:28:21;;;;;;;12.30;8.90;;;7.30;99.90;;;;;;5069935;28;20573;-74
2022/01/01 01:30:47;;;;;;;12.98;9.55;;;7.40;99.90;;;;;;5070311;28;20584;-74
2022/01/01 01:33:14;;;;;;;12.02;9.63;;;7.40;99.90;;;;;;5073488;28;20224;-74
2022/01/01 01:35:41;;;;;;;15.25;9.85;;;7.40;99.90;;;;;;5073673;28;20227;-74
2022/01/01 01:38:08;;;;;;;11.98;9.23;;;7.50;99.90;;;;;;5074058;28;20200;-74
2022/01/01 01:40:36;;;;;;;12.80;9.55;;;7.60;99.90;;;;;;5073592;28;20573;-74
2022/01/01 01:43:08;;;;;;;12.20;8.77;;;7.70;99.90;;;;;;5073420;28;20200;-75
2022/01/01 01:45:36;;;;;;;11.18;8.73;;;7.80;99.90;;;;;;5073232;28;20220;-76
2022/01/01 01:48:03;;;;;;;11.05;8.48;;;7.80;99.90;;;;;;5073608;28;20200;-76
2022/01/01 01:50:30;;;;;;;10.55;8.90;;;7.80;99.90;;;;;;5073142;28;20196;-76
2022/01/01 01:52:59;;;;;;;9.93;8.07;;;7.80;99.90;;;;;;5073081;28;20693;-76
2022/01/01 01:55:27;;;;;;;11.77;8.52;;;7.80;99.90;;;;;;5073328;28;20197;-76
2022/01/01 01:57:56;;;;;;;11.27;8.55;;;7.80;99.90;;;;;;5073374;28;20212;-76
2022/01/01 02:00:48;;;;;;;8.95;7.30;;;7.70;99.90;;;;;;5073474;28;20232;-76
2022/01/01 02:03:15;;;;;;;9.85;8.85;;;7.70;99.90;;;;;;5072931;28;20253;-75
2022/01/01 02:05:44;;;;;;;10.32;8.15;;;7.70;99.90;;;;;;5073111;28;20217;-76
2022/01/01 02:08:12;;;;;;;9.82;7.57;;;7.60;99.90;;;;;;5072978;28;20211;-76
2022/01/01 02:10:40;;;;;;;12.15;9.63;;;7.60;99.90;;;;;;5072832;28;20212;-76
2022/01/01 02:13:12;;;;;;;11.43;9.23;;;7.60;99.90;;;;;;5072604;28;20235;-76
2022/01/01 02:15:47;;;;;;;14.38;9.02;;;7.60;99.90;;;;;;5073188;28;20204;-75
2022/01/01 02:18:14;;;;;;;11.45;8.77;;;7.60;99.90;;;;;;5073726;28;20254;-75
2022/01/01 02:20:43;;;;;;;9.57;7.63;;;7.60;99.90;;;;;;5072876;28;20209;-76
2022/01/01 02:23:14;;;;;;;8.90;7.80;;;7.60;99.90;;;;;;5072935;28;20220;-74
2022/01/01 02:25:41;;;;;;;9.30;8.10;;;7.60;99.90;;;;;;5072788;28;20265;-76
2022/01/01 02:28:10;;;;;;;12.40;8.23;;;7.60;99.90;;;;;;5073213;28;20207;-76
2022/01/01 02:30:37;;;;;;;7.90;7.07;;;7.60;99.90;;;;;;5072855;28;20283;-76
2022/01/01 02:33:04;;;;;;;11.88;8.65;;;7.60;99.90;;;;;;5072609;28;20211;-76
2022/01/01 02:35:31;;;;;;;9.20;7.60;;;7.60;99.90;;;;;;5072585;28;20242;-76
2022/01/01 02:37:59;;;;;;;9.32;8.02;;;7.60;99.90;;;;;;5072938;28;20207;-76
2022/01/01 02:40:25;;;;;;;11.40;8.35;;;7.60;99.90;;;;;;5072640;28;20223;-76
2022/01/01 02:42:53;;;;;;;12.32;8.68;;;7.60;99.90;;;;;;5071392;28;20220;-76
2022/01/01 02:45:20;;;;;;;9.85;7.93;;;7.60;99.90;;;;;;5072292;28;20314;-76
2022/01/01 02:47:47;;;;;;;9.18;7.70;;;7.60;99.90;;;;;;5072270;28;20235;-76
2022/01/01 02:50:14;;;;;;;12.82;8.57;;;7.60;99.90;;;;;;5072476;28;20208;-75
2022/01/01 02:52:41;;;;;;;11.27;8.65;;;7.60;99.90;;;;;;5071628;28;20204;-76
2022/01/01 02:55:10;;;;;;;11.35;8.93;;;7.60;99.90;;;;;;5072314;28;20595;-76
2022/01/01 02:57:37;;;;;;;11.38;8.52;;;7.60;99.90;;;;;;5072445;28;20204;-76
2022/01/01 03:00:06;;;;;;;11.95;9.45;;;7.60;99.90;;;;;;5072216;28;20579;-76
2022/01/01 03:02:33;;;;;;;10.30;8.38;;;7.70;99.90;;;;;;5071436;28;20192;-76
2022/01/01 03:04:59;;;;;;;11.45;9.05;;;7.70;99.90;;;;;;5072153;28;20224;-76
2022/01/01 03:07:26;;;;;;;13.55;9.63;;;7.70;99.90;;;;;;5071916;28;20200;-76
2022/01/01 03:09:53;;;;;;;13.05;9.32;;;7.70;99.90;;;;;;5072138;28;20211;-76
2022/01/01 03:12:21;;;;;;;10.10;8.82;;;7.80;99.90;;;;;;5071567;28;20227;-76
2022/01/01 03:14:48;;;;;;;8.88;7.60;;;7.80;99.90;;;;;;5071908;28;20239;-76
2022/01/01 03:17:14;;;;;;;10.27;9.07;;;7.80;99.90;;;;;;5071643;28;20200;-76
2022/01/01 03:19:41;;;;;;;12.02;8.52;;;7.90;99.90;;;;;;5071645;28;20207;-76
2022/01/01 03:22:08;;;;;;;9.85;8.23;;;7.90;99.90;;;;;;5071227;28;20204;-76
2022/01/01 03:24:35;;;;;;;11.55;9.55;;;7.90;99.90;;;;;;5072571;28;20224;-76
2022/01/01 03:27:02;;;;;;;13.93;8.75;;;8.00;99.90;;;;;;5071590;28;20231;-76
2022/01/01 03:29:32;;;;;;;10.23;7.10;;;8.00;99.90;;;;;;5071457;28;20274;-76
2022/01/01 03:31:59;;;;;;;7.70;6.60;;;8.10;99.90;;;;;;5071240;28;20200;-76
2022/01/01 03:34:25;;;;;;;7.63;5.80;;;8.10;99.90;;;;;;5071342;28;20224;-76
2022/01/01 03:36:52;;;;;;;7.30;5.88;;;8.20;99.90;;;;;;5071782;28;20203;-76
2022/01/01 03:39:21;;;;;;;8.25;6.18;;;8.30;99.90;;;;;;5118690;22;20210;-92
2022/01/01 03:41:48;;;;;;;6.93;5.85;;;8.40;99.90;;;;;;5056069;28;20197;-94
2022/01/01 03:44:15;;;;;;;7.22;5.32;;;8.50;99.90;;;;;;5066933;28;20201;-93
2022/01/01 03:46:43;;;;;;;8.00;5.60;;;8.60;99.90;;;;;;5066644;28;20233;-93
2022/01/01 03:49:10;;;;;;;5.93;4.20;;;8.60;99.90;;;;;;5066446;28;20292;-93
2022/01/01 03:51:37;;;;;;;5.53;4.50;;;8.70;99.90;;;;;;5066972;28;20186;-94
2022/01/01 03:54:04;;;;;;;5.85;5.22;;;8.80;99.90;;;;;;5066801;28;20212;-95
2022/01/01 03:56:31;;;;;;;6.07;5.05;;;8.80;99.90;;;;;;5064206;28;20193;-94
2022/01/01 03:58:57;;;;;;;6.65;5.00;;;8.80;99.90;;;;;;5064139;28;20193;-93
2022/01/01 04:01:24;;;;;;;5.97;4.93;;;8.90;99.90;;;;;;5065387;28;20209;-94
2022/01/01 04:03:52;;;;;;;6.18;5.03;;;8.90;99.90;;;;;;5066061;28;20201;-94
2022/01/01 04:06:19;;;;;;;5.32;4.38;;;8.90;99.90;;;;;;5067256;28;20224;-94
2022/01/01 04:08:46;;;;;;;5.60;4.85;;;8.90;99.90;;;;;;5067638;28;20296;-94
2022/01/01 04:11:13;;;;;;;6.45;4.75;;;8.90;99.90;;;;;;5064715;28;20233;-93
2022/01/01 04:13:39;;;;;;;5.47;4.97;;;9.00;99.90;;;;;;5063831;28;20205;-93
2022/01/01 04:16:07;;;;;;;5.75;4.32;;;9.00;99.90;;;;;;5064067;28;20212;-94
2022/01/01 04:18:38;;;;;;;6.18;4.78;;;9.00;99.90;;;;;;5062806;28;20204;-93
2022/01/01 04:21:09;;;;;;;6.50;4.68;;;9.00;99.90;;;;;;5062413;28;20225;-93
2022/01/01 04:23:36;;;;;;;4.35;3.75;;;9.00;99.90;;;;;;5077526;28;20212;-93
2022/01/01 04:26:03;;;;;;;7.18;5.78;;;9.10;99.90;;;;;;5077434;28;20215;-92
2022/01/01 04:28:30;;;;;;;4.70;4.20;;;9.10;99.90;;;;;;5077497;28;20189;-92
2022/01/01 04:30:56;;;;;;;5.15;4.00;;;9.10;99.90;;;;;;5077104;28;20233;-93
2022/01/01 04:33:23;;;;;;;6.20;4.10;;;9.10;99.90;;;;;;5077572;28;20246;-92
2022/01/01 04:35:50;;;;;;;4.95;4.20;;;9.10;99.90;;;;;;5077527;28;20187;-91
2022/01/01 04:38:35;;;;;;;4.38;3.97;;;9.10;99.90;;;;;;5077463;28;20197;-92
2022/01/01 04:41:02;;;;;;;6.65;4.22;;;9.10;99.90;;;;;;5077034;28;20251;-93
2022/01/01 04:43:29;;;;;;;5.43;4.70;;;9.10;99.90;;;;;;5077305;28;20184;-92
2022/01/01 04:45:55;;;;;;;4.88;4.38;;;9.10;99.90;;;;;;5077368;28;20277;-93
2022/01/01 04:48:22;;;;;;;6.13;4.50;;;9.00;99.90;;;;;;5077009;28;20181;-92
2022/01/01 04:50:52;;;;;;;5.10;4.60;;;9.00;99.90;;;;;;5073063;28;20221;-94
2022/01/01 04:53:20;;;;;;;5.05;4.28;;;8.90;99.90;;;;;;5076936;28;20188;-92
2022/01/01 04:55:48;;;;;;;5.80;4.20;;;8.90;99.90;;;;;;5077237;28;20209;-94
2022/01/01 04:58:15;;;;;;;6.40;4.90;;;8.80;99.90;;;;;;5070804;28;20207;-93
2022/01/01 05:00:42;;;;;;;5.30;4.38;;;8.70;99.90;;;;;;5068362;28;20223;-95
2022/01/01 05:03:09;;;;;;;7.07;4.40;;;8.70;99.90;;;;;;5069260;28;20216;-94
2022/01/01 05:05:36;;;;;;;8.50;5.05;;;8.60;99.90;;;;;;5071664;28;20201;-95
2022/01/01 05:08:02;;;;;;;5.90;4.63;;;8.50;99.90;;;;;;5072307;28;20411;-95
2022/01/01 05:10:31;;;;;;;8.02;4.55;;;8.50;99.90;;;;;;5071416;28;20229;-96
2022/01/01 05:12:57;;;;;;;5.70;4.30;;;8.40;99.90;;;;;;5072915;28;20201;-94
2022/01/01 05:15:24;;;;;;;7.25;4.63;;;8.30;99.90;;;;;;5069514;28;20212;-93
2022/01/01 05:17:51;;;;;;;5.75;4.88;;;8.30;99.90;;;;;;5070316;28;20209;-93
2022/01/01 05:20:18;;;;;;;5.03;4.63;;;8.20;99.90;;;;;;5081031;28;20209;-93
2022/01/01 05:22:45;;;;;;;6.65;4.70;;;8.10;99.90;;;;;;5075887;28;20208;-94
2022/01/01 05:25:12;;;;;;;5.82;4.30;;;8.10;99.90;;;;;;5070502;28;20216;-93
2022/01/01 05:27:40;;;;;;;5.30;4.32;;;8.00;99.90;;;;;;5070718;28;20351;-94
2022/01/01 05:30:09;;;;;;;6.60;4.47;;;7.90;99.90;;;;;;5072637;28;20243;-93
2022/01/01 05:32:36;;;;;;;5.55;4.30;;;7.90;99.90;;;;;;5070028;28;20201;-94
2022/01/01 05:35:04;;;;;;;6.03;4.80;;;7.80;99.90;;;;;;5069189;28;20205;-94
2022/01/01 05:37:31;;;;;;;6.28;5.10;;;7.70;99.90;;;;;;5069621;28;20201;-93
2022/01/01 05:39:57;;;;;;;5.95;5.28;;;7.70;99.90;;;;;;5068639;28;20601;-92
2022/01/01 05:42:24;;;;;;;8.25;4.70;;;7.60;99.90;;;;;;5068153;28;20215;-93
2022/01/01 05:44:52;;;;;;;4.88;4.40;;;7.60;99.90;;;;;;5067959;28;20212;-94
2022/01/01 05:47:19;;;;;;;5.55;4.15;;;7.50;99.90;;;;;;5068721;28;20232;-93
2022/01/01 05:49:46;;;;;;;9.57;4.82;;;7.60;99.90;;;;;;5067287;28;20227;-93
2022/01/01 05:52:13;;;;;;;6.28;4.78;;;7.60;99.90;;;;;;5066460;28;20220;-93
2022/01/01 05:54:39;;;;;;;7.00;4.78;;;7.50;99.90;;;;;;5065423;28;20208;-93
2022/01/01 05:57:06;;;;;;;5.75;4.70;;;7.50;99.90;;;;;;5065833;28;20212;-93
2022/01/01 05:59:33;;;;;;;5.13;4.18;;;7.50;99.90;;;;;;5066395;28;20236;-93
2022/01/01 06:02:01;;;;;;;5.20;3.97;;;7.40;99.90;;;;;;5065855;28;20208;-94
2022/01/01 06:04:28;;;;;;;5.22;4.25;;;7.40;99.90;;;;;;5066548;28;20212;-93
2022/01/01 06:06:56;;;;;;;4.72;4.15;;;7.40;99.90;;;;;;5067288;28;20247;-93
2022/01/01 06:09:22;;;;;;;7.20;4.40;;;7.40;99.90;;;;;;5066669;28;20225;-94
2022/01/01 06:11:49;;;;;;;4.90;3.95;;;7.40;99.90;;;;;;5067518;28;20197;-94
2022/01/01 06:14:16;;;;;;;5.93;4.20;;;7.40;99.90;;;;;;5069503;28;20202;-93
2022/01/01 06:16:43;;;;;;;5.40;4.32;;;7.40;99.90;;;;;;5068259;28;20627;-93
2022/01/01 06:19:11;;;;;;;4.10;3.35;;;7.50;99.90;;;;;;5067187;28;20212;-93
2022/01/01 06:21:37;;;;;;;6.90;4.20;;;7.50;99.90;;;;;;5064357;28;20224;-94
2022/01/01 06:24:05;;;;;;;5.13;4.13;;;7.50;99.90;;;;;;5065122;28;20217;-93
2022/01/01 06:26:32;;;;;;;6.13;4.82;;;7.50;99.90;;;;;;5064243;28;20232;-93
2022/01/01 06:28:58;;;;;;;6.65;4.53;;;7.60;99.90;;;;;;5063753;28;20208;-93
2022/01/01 06:31:25;;;;;;;5.63;4.07;;;7.60;99.90;;;;;;5062941;28;20292;-93
2022/01/01 06:33:52;;;;;;;5.68;4.38;;;7.70;99.90;;;;;;5065943;28;20616;-93
2022/01/01 06:36:20;;;;;;;5.10;4.60;;;7.80;99.90;;;;;;5067186;28;20197;-93
2022/01/01 06:38:47;;;;;;;5.72;4.40;;;7.80;99.90;;;;;;5067379;28;20205;-94
2022/01/01 06:41:15;;;;;;;4.82;4.32;;;7.90;99.90;;;;;;5064452;28;20714;-93
2022/01/01 06:43:42;;;;;;;10.63;5.53;;;8.00;99.90;;;;;;5064309;28;20212;-94
2022/01/01 06:46:09;;;;;;;5.88;4.10;;;8.00;99.90;;;;;;5064381;28;20211;-94
2022/01/01 06:48:36;;;;;;;6.38;4.75;;;8.10;99.90;;;;;;5065331;28;20209;-94
2022/01/01 06:51:03;;;;;;;7.22;4.45;;;8.10;99.90;;;;;;5065490;28;20229;-95
2022/01/01 06:53:31;;;;;;;5.97;4.75;;;8.10;99.90;;;;;;5067400;28;20208;-95
2022/01/01 06:55:59;;;;;;;4.90;4.40;;;8.20;99.90;;;;;;5070731;28;20201;-94
2022/01/01 06:58:26;;;;;;;6.75;4.75;;;8.20;99.90;;;;;;5067142;28;20247;-93
2022/01/01 07:00:53;;;;;;;6.90;5.03;;;8.20;99.90;;;;;;5069247;28;20228;-94
2022/01/01 07:03:22;;;;;;;5.43;4.93;;;8.10;99.90;;;;;;5072378;28;20216;-93
2022/01/01 07:05:49;;;;;;;6.15;4.90;;;8.10;99.90;;;;;;5077728;28;20451;-92
2022/01/01 07:08:16;;;;;;;5.60;4.80;;;8.10;99.90;;;;;;5078702;28;20216;-92
2022/01/01 07:10:45;;;;;;;5.90;4.70;;;8.00;99.90;;;;;;5077499;28;20253;-92
2022/01/01 07:13:12;;;;;;;5.05;4.45;;;8.00;99.90;;;;;;5070378;28;20195;-91
2022/01/01 07:15:39;;;;;;;4.85;4.35;;;8.10;99.90;;;;;;5060347;28;20197;-92
2022/01/01 07:18:06;;;;;;;5.40;4.50;;;8.10;99.90;;;;;;5056625;28;20193;-91
2022/01/01 07:20:32;;;;;;;5.10;4.60;;;8.10;99.90;;;;;;5056713;28;20686;-92
2022/01/01 07:22:59;;;;;;;5.80;4.50;;;8.10;99.90;;;;;;5055709;28;20201;-92
2022/01/01 07:25:27;;;;;;;5.75;4.22;;;8.10;99.90;;;;;;5055125;28;20208;-92
2022/01/01 07:27:55;;;;;;;5.63;4.30;;;8.10;99.90;;;;;;5054639;28;20312;-91
2022/01/01 07:30:21;;;;;;;5.13;4.00;;;8.10;99.90;;;;;;5054174;28;20232;-92
2022/01/01 07:32:49;;;;;;;6.95;4.80;;;8.20;99.90;;;;;;5040732;28;20201;-92
2022/01/01 07:35:18;;;;;;;6.00;4.07;;;8.20;99.90;;;;;;5034434;28;20202;-92
2022/01/01 07:37:45;;;;;;;5.18;3.88;;;8.20;99.90;;;;;;5035445;28;20233;-92
2022/01/01 07:40:14;;;;;;;4.65;4.00;;;8.20;99.90;;;;;;5035297;28;20237;-92
2022/01/01 07:42:41;;;;;;;5.07;4.45;;;8.20;99.90;;;;;;5045808;28;20211;-92
2022/01/01 07:45:11;;;;;;;5.05;4.40;;;8.30;99.90;;;;;;5035899;28;20201;-91
2022/01/01 07:47:38;;;;;;;4.05;3.65;;;8.30;99.90;;;;;;5035934;28;20252;-91
2022/01/01 07:50:06;;;;;;;5.95;3.92;;;8.40;99.90;;;;;;5035618;28;20232;-91
2022/01/01 07:52:33;;;;;;;5.72;4.53;;;8.40;99.90;;;;;;5035454;28;20570;-92
2022/01/01 07:55:00;;;;;;;4.75;4.18;;;8.30;99.90;;;;;;5037866;28;20209;-92
2022/01/01 07:57:26;;;;;;;4.85;3.88;;;8.30;99.90;;;;;;5035849;28;20206;-91
2022/01/01 07:59:53;;;;;;;4.22;3.83;;;8.30;99.90;;;;;;5035571;28;20225;-92
2022/01/01 08:02:21;;;;;;;3.80;3.47;;;8.30;99.90;;;;;;5034689;28;20213;-91
2022/01/01 08:04:48;;;;;;;5.55;4.53;;;8.40;99.90;;;;;;5035531;28;20209;-92
2022/01/01 08:07:15;;;;;;;4.50;4.05;;;8.70;99.90;;;;;;5039278;28;20225;-91
2022/01/01 08:09:41;;;;;;;5.30;3.95;;;9.10;99.90;;;;;;5036512;28;20217;-92
2022/01/01 08:12:09;;;;;;;6.75;4.32;;;9.60;99.90;;;;;;5038830;28;20212;-92
2022/01/01 08:14:36;;;;;;;4.10;3.70;;;10.30;99.90;;;;;;5037058;28;20206;-92
2022/01/01 08:17:04;;;;;;;4.47;3.45;;;11.00;99.90;;;;;;5036137;28;20190;-91
2022/01/01 08:19:33;;;;;;;4.20;3.80;;;11.60;99.90;;;;;;5034108;28;20218;-92
2022/01/01 08:22:00;;;;;;;4.28;3.65;;;12.20;99.90;;;;;;5033779;28;20690;-92
2022/01/01 08:24:27;;;;;;;4.50;3.88;;;12.50;99.90;;;;;;5033491;28;20228;-92
2022/01/01 08:26:53;;;;;;;5.38;4.25;;;12.70;99.90;;;;;;5033784;28;20221;-92
2022/01/01 08:29:20;;;;;;;4.75;3.97;;;12.90;99.90;;;;;;5033561;28;20276;-92
2022/01/01 08:31:47;;;;;;;4.30;3.50;;;13.30;99.90;;;;;;5033944;28;20202;-92
2022/01/01 08:34:13;;;;;;;4.72;3.70;;;13.30;99.90;;;;;;5033787;28;20201;-92
2022/01/01 08:36:42;;;;;;;4.00;3.53;;;13.70;99.90;;;;;;5034230;28;20220;-92
2022/01/01 08:39:08;;;;;;;3.83;3.43;;;13.90;99.90;;;;;;5034075;28;20213;-92
2022/01/01 08:41:36;;;;;;;4.40;4.00;;;13.70;99.90;;;;;;5035635;28;20479;-91
2022/01/01 08:44:02;;;;;;;4.65;3.10;;;13.90;99.90;;;;;;5035559;28;20464;-92
2022/01/01 08:46:29;;;;;;;4.20;3.50;;;14.20;99.90;;;;;;5034991;28;20272;-92
2022/01/01 08:48:56;;;;;;;5.88;3.40;;;14.30;99.90;;;;;;5042060;28;20476;-92
2022/01/01 08:51:24;;;;;;;3.87;3.50;;;14.40;99.90;;;;;;5043059;28;20226;-92
2022/01/01 08:53:52;;;;;;;4.30;3.90;;;14.40;99.90;;;;;;5047262;28;20464;-91
2022/01/01 08:56:18;;;;;;;3.67;3.27;;;14.30;99.90;;;;;;5044100;28;20456;-92
2022/01/01 08:58:46;;;;;;;3.80;3.40;;;14.00;99.90;;;;;;5041321;28;20449;-92
2022/01/01 09:01:13;;;;;;;3.70;3.33;;;13.50;99.90;;;;;;5033842;28;20222;-91
2022/01/01 09:03:41;;;;;;;3.33;3.03;;;13.10;99.90;;;;;;5034135;28;20201;-92
2022/01/01 09:06:09;;;;;;;3.95;3.15;;;12.60;99.90;;;;;;5034844;28;20682;-92
2022/01/01 09:08:38;;;;;;;3.20;2.90;;;12.20;99.90;;;;;;5034761;28;20604;-92
2022/01/01 09:11:07;;;;;;;3.67;3.20;;;11.70;99.90;;;;;;5033843;28;20229;-92
2022/01/01 09:13:34;;;;;;;3.88;3.45;;;11.20;99.90;;;;;;5034688;28;20629;-92
2022/01/01 09:16:02;;;;;;;3.60;3.10;;;11.00;99.90;;;;;;5035011;28;20209;-92
2022/01/01 09:18:29;;;;;;;3.67;2.80;;;10.70;99.90;;;;;;5037747;28;20209;-92
2022/01/01 09:20:55;;;;;;;3.72;3.33;;;10.60;99.90;;;;;;5035838;28;20229;-91
2022/01/01 09:23:22;;;;;;;3.17;2.50;;;10.60;99.90;;;;;;5034955;28;20598;-92
2022/01/01 09:25:49;;;;;;;3.75;3.35;;;10.80;99.90;;;;;;5035302;28;20206;-92
2022/01/01 09:28:17;;;;;;;3.20;2.80;;;11.00;99.90;;;;;;5033806;28;20256;-92
2022/01/01 09:30:43;;;;;;;3.33;3.03;;;11.50;99.90;;;;;;5035665;28;20222;-92
2022/01/01 09:33:12;;;;;;;3.47;2.97;;;12.50;99.90;;;;;;5033961;28;20205;-92
2022/01/01 09:35:39;;;;;;;3.97;3.07;;;14.80;99.90;;;;;;5034515;28;20202;-93
2022/01/01 09:38:05;;;;;;;3.30;2.90;;;17.70;99.90;;;;;;5037060;28;21004;-94
2022/01/01 09:43:00;;;;;;;2.70;2.50;;;22.10;99.80;;;;;;4988540;28;20474;-75
2022/01/01 09:45:30;;;;;;;2.87;2.57;;;23.30;98.20;;;;;;4990192;28;20462;-74
2022/01/01 09:47:58;;;;;;;3.50;2.80;;;24.50;96.40;;;;;;4990430;28;20481;-76
2022/01/01 09:50:25;;;;;;;3.70;2.80;;;25.20;95.60;;;;;;4990176;28;20965;-76
2022/01/01 09:52:51;;;;;;;2.60;2.40;;;25.90;94.40;;;;;;4992144;28;20980;-76
2022/01/01 09:55:18;;;;;;;2.40;2.20;;;26.70;94.10;;;;;;4994527;28;20473;-76
2022/01/01 09:57:47;;;;;;;2.83;2.30;;;26.70;93.40;;;;;;4994384;28;20962;-75
2022/01/01 10:00:15;;;;;;;3.07;2.77;;;27.10;92.90;;;;;;4994023;28;20465;-76
2022/01/01 10:02:43;;;;;;;3.03;2.70;;;27.80;92.30;;;;;;4993904;28;20481;-76
2022/01/01 10:05:10;;;;;;;2.93;2.70;;;28.10;91.90;;;;;;4993991;28;20486;-76
2022/01/01 10:07:37;;;;;;;2.23;2.03;;;28.30;91.70;;;;;;4994103;28;21040;-76
2022/01/01 10:10:18;;;;;;;2.63;2.30;;;28.40;91.40;;;;;;4994371;28;20476;-76
2022/01/01 10:12:46;;;;;;;3.93;2.33;;;28.60;91.10;;;;;;4994012;28;20497;-76
2022/01/01 10:15:13;;;;;;;5.13;2.70;;;29.70;90.30;;;;;;4993770;28;20522;-77
2022/01/01 10:17:39;;;;;;;2.80;2.60;;;30.00;89.20;;;;;;4993135;28;20463;-76
2022/01/01 10:20:09;;;;;;;3.13;2.67;;;30.30;88.70;;;;;;4993949;28;20474;-76
2022/01/01 10:22:37;;;;;;;2.40;2.20;;;30.10;88.60;;;;;;4992162;28;20972;-76
2022/01/01 10:27:54;;;;;;;2.40;2.20;;;29.20;88.90;;;;;;4992734;28;20569;-77
2022/01/01 10:30:25;;;;;;;2.70;2.40;;;30.10;89.60;;;;;;4993731;28;20471;-76
2022/01/01 10:33:10;;;;;;;2.60;2.37;;;30.60;87.60;;;;;;4993136;28;20459;-76
2022/01/01 10:35:43;;;;;;;2.80;2.40;;;30.60;86.00;;;;;;4993075;28;20559;-76
2022/01/01 10:38:15;;;;;;;2.50;2.30;;;31.40;83.40;;;;;;4993493;28;20877;-76
2022/01/01 10:40:42;;;;;;;2.30;2.10;;;30.70;85.60;;;;;;4993144;28;20990;-77
2022/01/01 10:43:10;;;;;;;2.47;2.27;;;31.30;84.00;;;;;;4993120;28;20491;-76
2022/01/01 10:45:38;;;;;;;2.80;2.23;;;31.20;84.70;;;;;;4992791;28;20844;-76
2022/01/01 10:48:21;;;;;;;2.40;2.20;;;30.80;83.80;;;;;;4993138;28;20894;-76
2022/01/01 10:50:51;;;;;;;2.00;1.80;;;30.90;83.50;;;;;;4992770;28;20527;-76
2022/01/01 10:53:22;;;;;;;2.37;2.17;;;29.50;86.40;;;;;;4993092;28;20484;-77
2022/01/01 10:55:52;;;;;;;2.37;2.00;;;29.70;86.30;;;;;;4992830;28;21095;-76
2022/01/01 10:58:21;;;;;;;2.30;2.10;;;30.00;87.00;;;;;;4993030;28;20498;-77
2022/01/01 11:00:48;;;;;;;3.00;1.90;;;30.60;86.10;;;;;;4992972;28;20467;-76
2022/01/01 11:03:17;;;;;;;2.17;1.93;;;30.80;84.50;;;;;;4992059;28;20856;-76
2022/01/01 11:05:44;;;;;;;2.03;1.80;;;31.10;83.50;;;;;;4992515;28;20473;-76
2022/01/01 11:08:14;;;;;;;1.97;1.77;;;30.80;85.60;;;;;;4992625;28;20492;-75
2022/01/01 11:10:43;;;;;;;2.20;1.87;;;29.80;86.10;;;;;;4992607;28;20503;-75
2022/01/01 11:13:11;;;;;;;3.57;1.40;;;29.40;84.80;;;;;;4992778;28;20514;-75
2022/01/01 11:15:38;;;;;;;3.87;1.50;;;28.80;86.10;;;;;;4992306;28;20851;-76
2022/01/01 11:18:05;;;;;;;1.50;1.40;;;28.90;86.40;;;;;;4992557;28;20465;-76
2022/01/01 11:20:35;;;;;;;2.03;1.70;;;28.40;87.50;;;;;;4992688;28;20978;-77
2022/01/01 11:23:07;;;;;;;1.60;1.50;;;28.20;88.50;;;;;;4994105;28;20470;-79
2022/01/01 11:25:37;;;;;;;2.07;1.90;;;27.70;89.60;;;;;;4993100;28;20962;-79
2022/01/01 11:28:07;;;;;;;2.60;2.00;;;28.40;88.60;;;;;;4992105;28;20485;-79
2022/01/01 11:30:38;;;;;;;2.50;1.97;;;28.90;87.10;;;;;;4992801;28;20498;-80
2022/01/01 11:33:07;;;;;;;3.63;2.10;;;28.20;88.60;;;;;;4992046;28;20493;-80
2022/01/01 11:35:37;;;;;;;3.27;2.20;;;27.60;88.50;;;;;;4992449;28;20489;-79
2022/01/01 11:38:06;;;;;;;3.60;2.40;;;26.20;89.90;;;;;;4992607;28;20471;-78
2022/01/01 11:40:43;;;;;;;3.70;2.77;;;25.30;91.30;;;;;;4991777;28;20470;-79
2022/01/01 11:43:36;;;;;;;4.47;3.77;;;25.00;91.60;;;;;;4992006;28;20485;-78
2022/01/01 11:46:07;;;;;;;4.00;3.60;;;24.90;91.60;;;;;;4991932;28;20460;-79
2022/01/01 11:48:43;;;;;;;3.57;3.03;;;24.70;91.30;;;;;;4992265;28;20482;-76
2022/01/01 11:51:29;;;;;;;3.20;2.90;;;24.20;91.20;;;;;;4991448;28;20462;-76
2022/01/01 11:54:24;;;;;;;4.67;3.03;;;22.70;92.60;;;;;;4992082;28;20490;-77
2022/01/01 11:57:12;;;;;;;2.63;2.43;;;21.50;94.30;;;;;;4991657;28;20827;-77
2022/01/01 12:00:00;;;;;;;6.73;3.07;;;21.00;94.80;;;;;;4991850;28;20828;-77
2022/01/01 12:02:36;;;;;;;3.17;2.87;;;21.20;94.50;;;;;;4991204;28;20557;-77
2022/01/01 12:05:16;;;;;;;4.07;3.07;;;21.00;94.80;;;;;;4992056;28;20481;-76
2022/01/01 12:08:01;;;;;;;3.33;3.03;;;21.30;94.80;;;;;;4991568;28;20473;-76
2022/01/01 12:10:30;;;;;;;3.80;2.73;;;20.70;95.50;;;;;;4991774;28;20528;-77
2022/01/01 12:13:00;;;;;;;3.33;2.90;;;20.10;95.80;;;;;;4991080;28;20508;-76
2022/01/01 12:15:39;;;;;;;3.40;2.70;;;19.30;96.70;;;;;;4991150;28;20490;-76
2022/01/01 12:18:08;;;;;;;3.20;2.90;;;18.80;97.40;;;;;;4991809;28;20461;-76
2022/01/01 12:20:37;;;;;;;3.17;2.87;;;18.90;97.40;;;;;;4991352;28;20488;-76
2022/01/01 12:23:07;;;;;;;1.87;1.77;;;19.20;97.90;;;;;;4991244;28;20465;-76
2022/01/01 12:25:36;;;;;;;2.37;2.17;;;19.00;97.50;;;;;;4993017;28;20461;-78
2022/01/01 12:28:07;;;;;;;2.87;2.47;;;18.00;98.90;;;;;;4992054;28;20526;-78
2022/01/01 12:30:39;;;;;;;2.73;2.20;;;17.80;99.50;;;;;;4991584;28;20837;-77
2022/01/01 12:33:07;;;;;;;2.80;2.30;;;17.30;99.80;;;;;;4991193;28;20462;-78
2022/01/01 12:35:42;;;;;;;2.50;2.30;;;16.90;99.90;;;;;;4991800;28;20836;-77
2022/01/01 12:38:12;;;;;;;2.47;1.80;;;16.90;99.90;;;;;;4991750;28;20464;-78
2022/01/01 12:40:55;;;;;;;3.80;2.50;;;17.10;99.90;;;;;;4991364;28;20465;-77
2022/01/01 12:43:24;;;;;;;3.40;2.30;;;16.80;99.90;;;;;;4991699;28;20853;-78
2022/01/01 12:45:51;;;;;;;3.23;2.57;;;16.70;99.90;;;;;;4991842;28;20837;-78
2022/01/01 12:48:23;;;;;;;2.43;2.23;;;16.80;99.90;;;;;;4991380;28;20856;-78
2022/01/01 12:50:56;;;;;;;2.87;2.20;;;16.90;99.90;;;;;;4991445;28;20477;-78
2022/01/01 12:53:24;;;;;;;2.90;2.27;;;16.90;99.90;;;;;;4990989;28;20497;-78
2022/01/01 12:55:59;;;;;;;4.10;2.43;;;17.00;99.90;;;;;;4991953;28;20465;-78
2022/01/01 12:58:32;;;;;;;4.83;4.30;;;17.30;99.90;;;;;;4991498;28;20532;-78
2022/01/01 13:01:11;;;;;;;3.83;3.07;;;17.40;99.90;;;;;;4991290;28;20844;-77
2022/01/01 13:03:38;;;;;;;4.53;3.13;;;17.30;99.90;;;;;;4991017;28;21001;-77